Time;durP1;ratioP1;P1;durP2;ratioP2;P2;SDS_P1;SDS_P2;PMS_P1;PMS_P2;Temp;Humidity;BMP_temperature;BMP_pressure;BME280_temperature;BME280_humidity;BME280_pressure;Samples;Min_cycle;Max_cycle;Signal;HPM_P1;HPM_P2
2021/11/23 00:01:56;;;;;;;6.53;3.95;;;3.80;99.90;;;;;;5033074;28;20036;-80
2021/11/23 00:04:23;;;;;;;7.97;3.83;;;3.80;99.90;;;;;;5037143;28;20037;-80
2021/11/23 00:06:49;;;;;;;11.57;4.57;;;3.80;99.90;;;;;;5018741;28;20041;-81
2021/11/23 00:09:16;;;;;;;11.35;4.13;;;3.80;99.90;;;;;;5021307;28;20064;-81
2021/11/23 00:11:42;;;;;;;7.97;4.53;;;3.80;99.90;;;;;;5038608;28;20067;-81
2021/11/23 00:14:08;;;;;;;9.03;4.43;;;3.80;99.90;;;;;;5026282;28;20044;-76
2021/11/23 00:16:35;;;;;;;9.07;4.57;;;3.80;99.90;;;;;;5058169;28;20043;-76
2021/11/23 00:19:01;;;;;;;11.35;4.53;;;3.80;99.90;;;;;;5017399;28;20037;-77
2021/11/23 00:21:28;;;;;;;7.73;3.80;;;3.90;99.90;;;;;;5041027;28;20052;-77
2021/11/23 00:23:54;;;;;;;8.55;2.92;;;3.90;99.90;;;;;;5040581;28;20041;-81
2021/11/23 00:26:22;;;;;;;10.95;3.30;;;3.90;99.90;;;;;;5029211;28;20036;-81
2021/11/23 00:28:49;;;;;;;9.57;3.35;;;4.00;99.90;;;;;;5055477;28;20045;-81
2021/11/23 00:31:15;;;;;;;7.03;2.72;;;4.00;99.90;;;;;;5058931;28;20051;-81
2021/11/23 00:33:42;;;;;;;7.70;3.28;;;4.00;99.90;;;;;;5035579;28;20420;-81
2021/11/23 00:36:10;;;;;;;6.47;2.17;;;4.00;99.90;;;;;;5040710;28;20044;-81
2021/11/23 00:38:41;;;;;;;7.00;2.80;;;4.10;99.90;;;;;;5038656;28;20044;-81
2021/11/23 00:41:09;;;;;;;4.47;2.35;;;4.20;99.90;;;;;;5054356;28;20044;-81
2021/11/23 00:43:36;;;;;;;5.88;2.40;;;4.20;99.90;;;;;;5054473;28;20040;-81
2021/11/23 00:46:02;;;;;;;6.78;3.42;;;4.30;99.90;;;;;;5043027;28;20388;-81
2021/11/23 00:48:28;;;;;;;10.23;3.53;;;4.40;99.90;;;;;;5020719;28;20040;-81
2021/11/23 00:50:55;;;;;;;6.13;3.03;;;4.40;99.90;;;;;;5044365;28;20045;-76
2021/11/23 00:53:22;;;;;;;7.43;3.75;;;4.50;99.90;;;;;;5044955;28;20041;-80
2021/11/23 00:55:48;;;;;;;7.50;2.90;;;4.60;99.90;;;;;;5074947;28;20395;-80
2021/11/23 00:58:14;;;;;;;6.85;3.35;;;4.60;99.90;;;;;;5045051;28;20497;-76
2021/11/23 01:00:41;;;;;;;7.72;3.20;;;4.70;99.90;;;;;;5061260;28;20040;-76
2021/11/23 01:03:07;;;;;;;8.77;2.83;;;4.80;99.90;;;;;;5075723;28;20037;-76
2021/11/23 01:05:34;;;;;;;5.45;2.63;;;4.90;99.90;;;;;;5074193;28;20488;-77
2021/11/23 01:08:01;;;;;;;9.00;2.75;;;4.90;99.90;;;;;;5058060;28;20028;-76
2021/11/23 01:10:34;;;;;;;8.05;3.50;;;5.00;99.90;;;;;;5058357;28;20479;-77
2021/11/23 01:13:32;;;;;;;5.68;2.85;;;5.10;99.90;;;;;;5036796;28;20059;-76
2021/11/23 01:16:00;;;;;;;5.68;2.95;;;5.10;99.90;;;;;;5058588;28;20047;-76
2021/11/23 01:18:27;;;;;;;8.65;3.50;;;5.20;99.90;;;;;;5074096;28;20051;-76
2021/11/23 01:20:53;;;;;;;8.90;3.75;;;5.20;99.90;;;;;;5071974;28;20036;-76
2021/11/23 01:23:21;;;;;;;7.97;3.10;;;5.30;99.90;;;;;;5043779;28;20040;-80
2021/11/23 01:25:48;;;;;;;7.93;2.92;;;5.30;99.90;;;;;;5070677;28;20036;-81
2021/11/23 01:28:15;;;;;;;7.95;3.13;;;5.30;99.90;;;;;;5071876;28;20028;-80
2021/11/23 01:30:43;;;;;;;5.85;2.67;;;5.30;99.90;;;;;;5069583;28;20021;-81
2021/11/23 01:33:10;;;;;;;5.10;2.72;;;5.40;99.90;;;;;;5069726;28;20040;-81
2021/11/23 01:35:36;;;;;;;5.85;2.83;;;5.40;99.90;;;;;;5068007;28;20048;-81
2021/11/23 01:38:03;;;;;;;4.45;2.20;;;5.50;99.90;;;;;;5073946;28;20036;-80
2021/11/23 01:40:30;;;;;;;7.68;2.42;;;5.50;99.90;;;;;;5059303;28;20035;-76
2021/11/23 01:42:56;;;;;;;6.18;2.33;;;5.50;99.90;;;;;;5073079;28;20383;-76
2021/11/23 01:45:23;;;;;;;6.60;3.10;;;5.50;99.90;;;;;;5067869;28;20068;-81
2021/11/23 01:47:50;;;;;;;4.80;2.35;;;5.50;99.90;;;;;;5067250;28;20037;-81
2021/11/23 01:50:16;;;;;;;6.90;2.40;;;5.60;99.90;;;;;;5072988;28;20025;-81
2021/11/23 01:52:44;;;;;;;5.68;1.95;;;5.60;99.90;;;;;;5075339;28;20040;-81
2021/11/23 01:55:12;;;;;;;8.65;2.55;;;5.60;99.90;;;;;;5072158;28;20048;-82
2021/11/23 01:57:38;;;;;;;5.55;1.95;;;5.70;99.90;;;;;;5048817;28;20071;-81
2021/11/23 02:00:08;;;;;;;4.75;2.53;;;5.70;99.90;;;;;;5076515;28;20035;-81
2021/11/23 02:02:43;;;;;;;7.75;2.13;;;5.70;99.90;;;;;;5057923;28;20040;-81
2021/11/23 02:05:10;;;;;;;5.25;1.77;;;5.70;99.90;;;;;;5052427;28;20032;-81
2021/11/23 02:07:38;;;;;;;5.80;2.20;;;5.80;99.90;;;;;;5070424;28;20043;-81
2021/11/23 02:10:06;;;;;;;7.80;1.88;;;5.80;99.90;;;;;;5074340;28;20040;-81
2021/11/23 02:12:34;;;;;;;5.63;1.95;;;5.80;99.90;;;;;;5069821;28;20040;-81
2021/11/23 02:15:03;;;;;;;7.85;2.08;;;5.80;99.90;;;;;;5040960;28;20036;-81
2021/11/23 02:17:30;;;;;;;8.10;2.13;;;5.80;99.90;;;;;;5070725;28;20028;-81
2021/11/23 02:19:57;;;;;;;4.20;1.90;;;5.80;99.90;;;;;;5023821;28;20041;-81
2021/11/23 02:22:23;;;;;;;9.95;2.13;;;5.80;99.90;;;;;;5027585;28;20037;-81
2021/11/23 02:24:50;;;;;;;7.60;3.15;;;5.80;99.90;;;;;;5061289;28;20041;-76
2021/11/23 02:27:16;;;;;;;4.78;1.88;;;5.90;99.90;;;;;;5034998;28;20040;-80
2021/11/23 02:29:43;;;;;;;4.80;1.80;;;5.90;99.90;;;;;;5074739;28;20510;-80
2021/11/23 02:32:09;;;;;;;8.73;2.85;;;5.90;99.90;;;;;;5037129;28;20503;-80
2021/11/23 02:34:36;;;;;;;7.30;2.60;;;5.90;99.90;;;;;;5056429;28;20055;-80
2021/11/23 02:37:03;;;;;;;7.40;2.40;;;5.90;99.90;;;;;;5019403;28;20057;-76
2021/11/23 02:39:29;;;;;;;7.20;2.65;;;5.90;99.90;;;;;;5071998;28;20040;-76
2021/11/23 02:41:55;;;;;;;6.13;2.13;;;5.90;99.90;;;;;;5045102;28;20071;-80
2021/11/23 02:44:22;;;;;;;9.15;3.80;;;5.90;99.90;;;;;;5060009;28;20502;-80
2021/11/23 02:46:48;;;;;;;5.25;2.75;;;5.90;99.90;;;;;;5073161;28;20386;-76
2021/11/23 02:49:18;;;;;;;10.13;3.35;;;6.00;99.90;;;;;;5056837;28;20036;-76
2021/11/23 02:51:45;;;;;;;10.88;3.35;;;5.90;99.90;;;;;;5075571;28;20392;-81
2021/11/23 02:54:11;;;;;;;9.05;4.43;;;6.00;99.90;;;;;;5059277;28;20047;-81
2021/11/23 02:56:38;;;;;;;7.65;2.72;;;6.00;99.90;;;;;;5055221;28;20032;-81
2021/11/23 02:59:04;;;;;;;7.03;2.58;;;6.00;99.90;;;;;;5075296;28;20404;-81
2021/11/23 03:01:31;;;;;;;6.65;2.88;;;6.00;99.90;;;;;;5056950;28;20040;-76
2021/11/23 03:03:57;;;;;;;7.78;2.13;;;6.10;99.90;;;;;;5042525;28;20036;-80
2021/11/23 03:06:24;;;;;;;6.47;2.00;;;6.10;99.90;;;;;;5072842;28;20047;-81
2021/11/23 03:08:51;;;;;;;8.75;2.65;;;6.20;99.90;;;;;;5058385;28;20028;-80
2021/11/23 03:11:21;;;;;;;9.65;2.60;;;6.20;99.90;;;;;;5070517;28;20383;-81
2021/11/23 03:13:48;;;;;;;9.07;2.33;;;6.30;99.90;;;;;;5075539;28;20028;-81
2021/11/23 03:16:14;;;;;;;10.05;2.90;;;6.30;99.90;;;;;;5073915;28;20036;-81
2021/11/23 03:18:41;;;;;;;8.68;2.70;;;6.40;99.90;;;;;;5040326;28;20056;-81
2021/11/23 03:21:08;;;;;;;9.25;2.50;;;6.40;99.90;;;;;;5072753;28;20032;-82
2021/11/23 03:23:34;;;;;;;7.22;2.08;;;6.40;99.90;;;;;;5037302;28;20048;-81
2021/11/23 03:26:00;;;;;;;8.93;2.30;;;6.40;99.90;;;;;;5074566;28;20394;-81
2021/11/23 03:28:27;;;;;;;10.65;2.50;;;6.50;99.90;;;;;;5042094;28;20045;-76
2021/11/23 03:30:53;;;;;;;9.13;2.55;;;6.50;99.90;;;;;;5070848;28;20032;-77
2021/11/23 03:33:20;;;;;;;6.55;2.80;;;6.50;99.90;;;;;;5071181;28;20032;-77
2021/11/23 03:35:47;;;;;;;6.72;1.75;;;6.60;99.90;;;;;;5052341;28;20547;-76
2021/11/23 03:38:14;;;;;;;9.35;2.55;;;6.60;99.90;;;;;;5059624;28;20044;-76
2021/11/23 03:40:42;;;;;;;9.68;1.92;;;6.60;99.90;;;;;;5060075;28;20371;-77
2021/11/23 03:43:10;;;;;;;8.27;1.50;;;6.60;99.90;;;;;;5051707;28;20379;-76
2021/11/23 03:45:37;;;;;;;5.40;2.30;;;6.60;99.90;;;;;;5057740;28;20039;-76
2021/11/23 03:48:04;;;;;;;7.03;2.10;;;6.60;99.90;;;;;;5076325;28;20492;-77
2021/11/23 03:50:32;;;;;;;10.50;2.67;;;6.60;99.90;;;;;;5074472;28;20047;-77
2021/11/23 03:52:59;;;;;;;7.93;2.30;;;6.50;99.90;;;;;;5080145;28;20055;-76
2021/11/23 03:55:27;;;;;;;6.47;2.00;;;6.60;99.90;;;;;;5072860;28;20040;-76
2021/11/23 03:57:55;;;;;;;5.32;1.83;;;6.60;99.90;;;;;;5043496;28;20048;-76
2021/11/23 04:00:23;;;;;;;7.15;2.53;;;6.50;99.90;;;;;;5019752;28;20047;-76
2021/11/23 04:02:50;;;;;;;5.47;2.97;;;6.60;99.90;;;;;;5073468;28;20036;-76
2021/11/23 04:05:17;;;;;;;9.13;2.90;;;6.60;99.90;;;;;;5072927;28;20028;-81
2021/11/23 04:07:43;;;;;;;6.03;2.85;;;6.60;99.90;;;;;;5076643;28;20042;-81
2021/11/23 04:10:13;;;;;;;7.43;2.92;;;6.60;99.90;;;;;;5075050;28;20037;-81
2021/11/23 04:12:40;;;;;;;7.07;2.80;;;6.60;99.90;;;;;;5036785;28;20490;-81
2021/11/23 04:15:07;;;;;;;5.18;2.90;;;6.70;99.90;;;;;;5059735;28;20063;-81
2021/11/23 04:17:35;;;;;;;4.93;2.42;;;6.70;99.90;;;;;;5052500;28;20044;-81
2021/11/23 04:20:03;;;;;;;5.35;3.15;;;6.70;99.90;;;;;;5076188;28;20029;-76
2021/11/23 04:22:29;;;;;;;11.45;3.50;;;6.70;99.90;;;;;;5061986;28;20059;-76
2021/11/23 04:24:56;;;;;;;10.05;3.13;;;6.70;99.90;;;;;;5078520;28;20043;-76
2021/11/23 04:27:22;;;;;;;4.63;2.33;;;6.80;99.90;;;;;;5057871;28;20062;-76
2021/11/23 04:29:49;;;;;;;8.38;2.78;;;6.80;99.90;;;;;;5077914;28;20028;-81
2021/11/23 04:32:15;;;;;;;9.35;3.80;;;6.80;99.90;;;;;;5071424;28;20405;-81
2021/11/23 04:34:42;;;;;;;5.95;2.25;;;6.90;99.90;;;;;;5073374;28;20186;-81
2021/11/23 04:37:08;;;;;;;5.70;2.50;;;6.90;99.90;;;;;;5054687;28;20916;-81
2021/11/23 04:39:34;;;;;;;6.10;2.20;;;6.90;99.90;;;;;;5055392;28;20372;-81
2021/11/23 04:42:01;;;;;;;9.60;2.15;;;6.90;99.90;;;;;;5055772;28;20032;-81
2021/11/23 04:44:27;;;;;;;8.68;2.78;;;7.00;99.90;;;;;;5076046;28;20033;-81
2021/11/23 04:46:54;;;;;;;7.47;3.25;;;7.00;99.90;;;;;;5056318;28;20047;-81
2021/11/23 04:49:22;;;;;;;5.47;2.25;;;7.10;99.90;;;;;;5071777;28;20506;-81
2021/11/23 04:51:49;;;;;;;8.77;2.42;;;7.10;99.90;;;;;;5045089;28;20049;-81
2021/11/23 04:54:16;;;;;;;3.80;1.83;;;7.10;99.90;;;;;;5073428;28;20037;-76
2021/11/23 04:56:42;;;;;;;8.70;2.83;;;7.10;99.90;;;;;;5015452;28;20037;-76
2021/11/23 04:59:09;;;;;;;5.32;2.05;;;7.20;99.90;;;;;;5079778;28;20036;-81
2021/11/23 05:01:35;;;;;;;6.22;2.58;;;7.20;99.90;;;;;;5051823;28;20037;-81
2021/11/23 05:04:02;;;;;;;6.70;2.45;;;7.20;99.90;;;;;;5051776;28;20036;-81
2021/11/23 05:06:30;;;;;;;5.88;2.55;;;7.20;99.90;;;;;;5051262;28;20048;-81
2021/11/23 05:08:56;;;;;;;5.63;2.30;;;7.20;99.90;;;;;;5038849;28;20036;-81
2021/11/23 05:11:26;;;;;;;6.00;2.58;;;7.20;99.90;;;;;;5073878;28;20420;-76
2021/11/23 05:13:53;;;;;;;10.30;3.15;;;7.20;99.90;;;;;;5070413;28;20036;-76
2021/11/23 05:16:20;;;;;;;10.02;2.88;;;7.20;99.90;;;;;;5076912;28;20032;-81
2021/11/23 05:18:47;;;;;;;7.70;2.65;;;7.20;99.90;;;;;;5070732;28;20051;-81
2021/11/23 05:21:14;;;;;;;8.13;2.80;;;7.20;99.90;;;;;;5069469;28;20036;-76
2021/11/23 05:23:41;;;;;;;6.15;1.88;;;7.20;99.90;;;;;;5059955;28;20213;-77
2021/11/23 05:26:07;;;;;;;6.43;2.60;;;7.20;99.90;;;;;;5037442;28;20521;-76
2021/11/23 05:28:34;;;;;;;6.20;2.65;;;7.20;99.90;;;;;;5042431;28;20040;-77
2021/11/23 05:31:00;;;;;;;6.57;2.60;;;7.30;99.90;;;;;;5067931;28;20043;-77
2021/11/23 05:33:27;;;;;;;5.70;2.53;;;7.20;99.90;;;;;;5046278;28;20518;-76
2021/11/23 05:35:54;;;;;;;10.57;4.00;;;7.30;99.90;;;;;;5075132;28;20108;-81
2021/11/23 05:38:20;;;;;;;9.45;4.00;;;7.30;99.90;;;;;;5058392;28;20040;-81
2021/11/23 05:40:47;;;;;;;9.65;3.60;;;7.30;99.90;;;;;;5074459;28;20033;-80
2021/11/23 05:43:14;;;;;;;8.32;3.38;;;7.30;99.90;;;;;;5073283;28;20081;-81
2021/11/23 05:45:41;;;;;;;7.90;3.65;;;7.30;99.90;;;;;;5072951;28;20036;-81
2021/11/23 05:48:07;;;;;;;13.70;4.38;;;7.40;99.90;;;;;;5061816;28;20098;-81
2021/11/23 05:50:34;;;;;;;8.25;4.22;;;7.30;99.90;;;;;;5070577;28;20041;-80
2021/11/23 05:53:02;;;;;;;8.82;3.65;;;7.30;99.90;;;;;;5038206;28;20048;-81
2021/11/23 05:55:29;;;;;;;10.85;3.83;;;7.30;99.90;;;;;;5075970;28;20047;-81
2021/11/23 05:57:56;;;;;;;11.88;3.90;;;7.30;99.90;;;;;;5056160;28;20044;-77
2021/11/23 06:00:23;;;;;;;9.15;4.38;;;7.30;99.90;;;;;;5055434;28;20060;-77
2021/11/23 06:02:49;;;;;;;7.53;4.50;;;7.30;99.90;;;;;;5053702;28;20380;-77
2021/11/23 06:05:15;;;;;;;10.43;5.35;;;7.30;99.90;;;;;;5071997;28;20049;-77
2021/11/23 06:07:42;;;;;;;11.10;5.15;;;7.30;99.90;;;;;;5040913;28;20403;-77
2021/11/23 06:10:09;;;;;;;9.65;5.45;;;7.30;99.90;;;;;;5078106;28;20650;-77
2021/11/23 06:12:35;;;;;;;14.20;6.18;;;7.30;99.90;;;;;;5075911;28;20036;-81
2021/11/23 06:15:03;;;;;;;10.65;6.40;;;7.30;99.90;;;;;;5076915;28;20052;-77
2021/11/23 06:17:30;;;;;;;13.35;6.53;;;7.30;99.90;;;;;;5071169;28;20411;-77
2021/11/23 06:19:56;;;;;;;13.77;6.68;;;7.40;99.90;;;;;;5057205;28;20038;-77
2021/11/23 06:22:23;;;;;;;16.52;7.40;;;7.30;99.90;;;;;;5072106;28;20059;-76
2021/11/23 06:24:49;;;;;;;17.75;7.72;;;7.30;99.90;;;;;;5074187;28;20043;-77
2021/11/23 06:27:16;;;;;;;16.58;7.85;;;7.30;99.90;;;;;;5055511;28;20043;-76
2021/11/23 06:29:42;;;;;;;11.55;7.72;;;7.30;99.90;;;;;;5058287;28;20036;-76
2021/11/23 06:32:09;;;;;;;16.90;8.68;;;7.30;99.90;;;;;;5073862;28;20043;-79
2021/11/23 06:34:35;;;;;;;16.98;8.35;;;7.30;99.90;;;;;;5040245;28;20033;-78
2021/11/23 06:37:02;;;;;;;11.48;8.20;;;7.30;99.90;;;;;;5071133;28;20558;-79
2021/11/23 06:39:28;;;;;;;14.82;9.38;;;7.30;99.90;;;;;;5073577;28;20024;-76
2021/11/23 06:41:55;;;;;;;11.57;7.68;;;7.30;99.90;;;;;;5067463;28;20025;-77
2021/11/23 06:44:21;;;;;;;10.70;6.55;;;7.30;99.90;;;;;;5073321;28;20040;-76
2021/11/23 06:46:48;;;;;;;10.52;6.90;;;7.30;99.90;;;;;;5055128;28;20095;-75
2021/11/23 06:49:14;;;;;;;14.20;7.47;;;7.30;99.90;;;;;;5052788;28;20032;-77
2021/11/23 06:51:41;;;;;;;11.10;7.07;;;7.30;99.90;;;;;;5056688;28;20067;-77
2021/11/23 06:54:07;;;;;;;19.70;10.30;;;7.30;99.90;;;;;;5053450;28;20055;-77
2021/11/23 06:56:33;;;;;;;13.00;7.95;;;7.30;99.90;;;;;;5071297;28;20040;-77
2021/11/23 06:59:01;;;;;;;12.75;7.97;;;7.30;99.90;;;;;;5071496;28;20399;-78
2021/11/23 07:01:27;;;;;;;11.60;7.43;;;7.20;99.90;;;;;;5052571;28;20033;-81
2021/11/23 07:03:54;;;;;;;15.80;8.85;;;7.30;99.90;;;;;;5040461;28;20051;-77
2021/11/23 07:06:20;;;;;;;11.77;8.13;;;7.30;99.90;;;;;;5069742;28;20035;-77
2021/11/23 07:08:47;;;;;;;14.20;8.90;;;7.30;99.90;;;;;;5020935;28;20033;-76
2021/11/23 07:11:14;;;;;;;14.18;9.73;;;7.30;99.90;;;;;;5057959;28;20020;-79
2021/11/23 07:13:40;;;;;;;14.13;8.50;;;7.20;99.90;;;;;;5059861;28;20048;-82
2021/11/23 07:16:12;;;;;;;15.23;8.38;;;7.20;99.90;;;;;;5039983;28;20059;-83
2021/11/23 07:18:38;;;;;;;11.57;6.65;;;7.20;99.90;;;;;;5073621;28;20055;-76
2021/11/23 07:21:05;;;;;;;11.95;6.97;;;7.10;99.90;;;;;;5031277;28;20048;-77
2021/11/23 07:23:31;;;;;;;9.77;5.93;;;7.00;99.90;;;;;;5075048;28;20045;-76
2021/11/23 07:25:58;;;;;;;10.02;5.20;;;7.10;99.90;;;;;;5040493;28;20447;-76
2021/11/23 07:28:24;;;;;;;12.35;6.95;;;7.00;99.90;;;;;;5063032;28;20036;-76
2021/11/23 07:30:54;;;;;;;14.50;8.05;;;7.00;99.90;;;;;;5076421;28;20036;-76
2021/11/23 07:33:21;;;;;;;14.30;7.45;;;7.00;99.90;;;;;;5071647;28;20476;-76
2021/11/23 07:35:48;;;;;;;10.05;5.50;;;7.10;99.90;;;;;;5025154;28;20039;-76
2021/11/23 07:38:15;;;;;;;9.35;5.00;;;7.10;99.90;;;;;;5043968;28;20438;-76
2021/11/23 07:40:41;;;;;;;12.07;6.57;;;7.10;99.90;;;;;;5042940;28;20043;-77
2021/11/23 07:43:08;;;;;;;15.23;9.48;;;7.10;99.90;;;;;;5077034;28;20032;-77
2021/11/23 07:45:34;;;;;;;19.48;11.35;;;7.10;99.90;;;;;;5074980;28;20040;-76
2021/11/23 07:48:01;;;;;;;17.77;9.63;;;7.10;99.90;;;;;;5076899;28;20767;-75
2021/11/23 07:50:27;;;;;;;18.17;8.52;;;7.10;99.90;;;;;;5041719;28;20040;-75
2021/11/23 07:52:54;;;;;;;12.77;8.90;;;7.10;99.90;;;;;;5046047;28;20051;-75
2021/11/23 07:55:21;;;;;;;14.98;8.45;;;7.10;99.90;;;;;;5029140;28;20055;-76
2021/11/23 07:57:47;;;;;;;11.43;7.68;;;7.10;99.90;;;;;;5060088;28;20032;-75
2021/11/23 08:00:14;;;;;;;10.32;7.63;;;7.10;99.90;;;;;;5062894;28;20036;-75
2021/11/23 08:02:40;;;;;;;10.38;8.52;;;7.20;99.90;;;;;;5079476;28;20051;-75
2021/11/23 08:05:07;;;;;;;8.13;6.35;;;7.20;99.90;;;;;;5075546;28;20036;-75
2021/11/23 08:07:33;;;;;;;9.32;6.18;;;7.20;99.90;;;;;;5079784;28;20041;-75
2021/11/23 08:10:00;;;;;;;6.43;5.00;;;7.30;99.90;;;;;;5080054;28;20050;-75
2021/11/23 08:12:26;;;;;;;6.22;5.07;;;7.40;99.90;;;;;;5075353;28;20032;-75
2021/11/23 08:14:53;;;;;;;5.38;4.63;;;7.50;99.90;;;;;;5075910;28;20045;-74
2021/11/23 08:17:19;;;;;;;6.18;5.20;;;7.60;99.90;;;;;;5078119;28;20041;-74
2021/11/23 08:19:46;;;;;;;5.90;5.30;;;7.70;99.90;;;;;;5058577;28;20032;-74
2021/11/23 08:22:13;;;;;;;6.10;5.32;;;7.80;99.90;;;;;;5059801;28;20043;-75
2021/11/23 08:24:39;;;;;;;6.10;5.18;;;7.90;99.90;;;;;;5082539;28;20379;-75
2021/11/23 08:27:06;;;;;;;5.82;4.38;;;7.90;99.90;;;;;;5055465;28;20029;-75
2021/11/23 08:29:32;;;;;;;6.40;5.80;;;8.00;99.90;;;;;;5068253;28;20047;-74
2021/11/23 08:31:59;;;;;;;5.15;4.65;;;8.00;99.90;;;;;;5077447;28;20028;-74
2021/11/23 08:34:27;;;;;;;5.50;5.00;;;8.00;99.90;;;;;;5057045;28;20047;-75
2021/11/23 08:36:54;;;;;;;5.28;4.75;;;8.00;99.90;;;;;;5077995;28;20443;-75
2021/11/23 08:39:20;;;;;;;8.30;5.93;;;8.10;99.90;;;;;;5055900;28;20040;-75
2021/11/23 08:41:47;;;;;;;9.50;5.50;;;8.10;99.90;;;;;;5076998;28;20035;-75
2021/11/23 08:44:15;;;;;;;6.60;6.00;;;8.10;99.90;;;;;;5080135;28;20387;-75
2021/11/23 08:46:42;;;;;;;7.47;5.85;;;8.10;99.90;;;;;;5042596;28;20033;-75
2021/11/23 08:49:08;;;;;;;8.75;5.95;;;8.10;99.90;;;;;;5076450;28;20043;-74
2021/11/23 08:51:37;;;;;;;7.43;6.65;;;8.10;99.90;;;;;;5077753;28;20055;-74
2021/11/23 08:54:05;;;;;;;7.68;6.25;;;8.00;99.90;;;;;;5056716;28;20037;-74
2021/11/23 08:56:38;;;;;;;10.70;7.03;;;8.10;99.90;;;;;;5073395;28;20051;-74
2021/11/23 08:59:12;;;;;;;9.88;6.65;;;8.10;99.90;;;;;;5081824;28;20071;-74
2021/11/23 09:01:40;;;;;;;10.13;6.20;;;8.10;99.90;;;;;;5075067;28;20040;-74
2021/11/23 09:04:06;;;;;;;20.17;7.40;;;8.20;99.90;;;;;;5078320;28;20059;-74
2021/11/23 09:06:36;;;;;;;23.85;6.68;;;8.20;99.90;;;;;;5076761;28;20036;-75
2021/11/23 09:09:05;;;;;;;15.93;7.55;;;8.30;99.90;;;;;;5055213;28;20036;-75
2021/11/23 09:11:32;;;;;;;17.42;7.18;;;8.30;99.90;;;;;;5056592;28;20024;-74
2021/11/23 09:13:58;;;;;;;14.75;10.27;;;8.30;99.90;;;;;;5056839;28;20043;-74
2021/11/23 09:16:24;;;;;;;13.55;8.68;;;8.50;99.90;;;;;;5073595;28;20032;-80
2021/11/23 09:18:51;;;;;;;9.63;7.65;;;8.60;99.90;;;;;;5071514;28;20028;-78
2021/11/23 09:21:18;;;;;;;14.35;8.68;;;8.80;99.90;;;;;;5068103;28;20040;-83
2021/11/23 09:23:45;;;;;;;12.15;8.63;;;9.00;99.90;;;;;;5073612;28;20032;-79
2021/11/23 09:26:12;;;;;;;13.85;8.10;;;9.10;99.90;;;;;;5071988;28;20468;-81
2021/11/23 09:28:39;;;;;;;10.18;8.57;;;9.20;99.90;;;;;;5073639;28;20032;-82
2021/11/23 09:31:05;;;;;;;7.80;6.18;;;9.30;99.90;;;;;;5076645;28;20031;-79
2021/11/23 09:33:32;;;;;;;16.42;10.70;;;9.40;99.90;;;;;;5053930;28;20044;-81
2021/11/23 09:35:59;;;;;;;17.13;12.20;;;9.50;99.90;;;;;;5068789;28;20527;-83
2021/11/23 09:38:25;;;;;;;17.73;9.60;;;9.60;99.90;;;;;;5052128;28;20036;-82
2021/11/23 09:40:52;;;;;;;17.42;9.80;;;9.70;99.90;;;;;;5075059;28;20044;-83
2021/11/23 09:43:18;;;;;;;11.88;7.30;;;9.80;99.90;;;;;;5079171;28;20796;-81
2021/11/23 09:45:45;;;;;;;17.67;8.88;;;9.70;99.90;;;;;;5071336;28;20037;-79
2021/11/23 09:48:11;;;;;;;10.50;6.95;;;9.70;99.90;;;;;;5054079;28;20427;-81
2021/11/23 09:50:42;;;;;;;10.60;6.78;;;9.70;99.90;;;;;;5053437;28;20708;-80
2021/11/23 09:53:10;;;;;;;10.70;6.90;;;9.70;99.90;;;;;;5070165;28;20150;-79
2021/11/23 09:55:39;;;;;;;7.18;5.43;;;9.70;99.90;;;;;;5078036;28;20035;-80
2021/11/23 09:58:06;;;;;;;8.73;6.88;;;9.70;99.90;;;;;;5073036;28;20037;-79
2021/11/23 10:00:45;;;;;;;6.53;5.53;;;9.60;99.90;;;;;;5056123;28;20036;-79
2021/11/23 10:03:30;;;;;;;11.15;7.00;;;9.70;99.90;;;;;;5036594;28;20039;-78
2021/11/23 10:06:08;;;;;;;10.68;6.25;;;9.70;99.90;;;;;;5075809;28;20027;-78
2021/11/23 10:08:37;;;;;;;6.78;6.00;;;9.70;99.90;;;;;;5073560;28;20063;-79
2021/11/23 10:11:04;;;;;;;8.40;5.47;;;9.70;99.90;;;;;;5076722;28;20036;-79
2021/11/23 10:13:49;;;;;;;10.57;5.72;;;9.60;99.90;;;;;;5075917;28;20357;-80
2021/11/23 10:16:17;;;;;;;7.30;6.05;;;9.60;99.90;;;;;;5074162;28;20033;-79
2021/11/23 10:18:44;;;;;;;15.38;6.60;;;9.50;99.90;;;;;;5078461;28;20565;-81
2021/11/23 10:21:12;;;;;;;8.27;5.43;;;9.50;99.90;;;;;;5038105;28;20043;-78
2021/11/23 10:23:52;;;;;;;8.10;6.38;;;9.50;99.90;;;;;;5077183;28;20592;-78
2021/11/23 10:26:30;;;;;;;8.82;7.35;;;9.50;99.90;;;;;;5073676;28;20039;-78
2021/11/23 10:29:02;;;;;;;11.45;6.45;;;9.60;99.90;;;;;;5074711;28;20533;-80
2021/11/23 10:31:42;;;;;;;9.82;7.15;;;9.80;99.90;;;;;;5055474;28;20041;-81
2021/11/23 10:34:12;;;;;;;10.52;7.13;;;9.90;99.90;;;;;;5054131;28;20036;-80
2021/11/23 10:36:41;;;;;;;10.02;6.95;;;9.90;99.90;;;;;;5077289;28;20060;-82
2021/11/23 10:39:20;;;;;;;12.68;8.32;;;10.00;99.90;;;;;;5073362;28;20373;-78
2021/11/23 10:41:52;;;;;;;9.68;6.95;;;10.00;99.90;;;;;;5078099;28;20033;-80
2021/11/23 10:44:20;;;;;;;14.20;10.35;;;10.00;99.90;;;;;;5077144;28;20028;-79
2021/11/23 10:47:00;;;;;;;15.27;10.98;;;10.10;99.90;;;;;;5071894;28;20039;-79
2021/11/23 10:49:38;;;;;;;16.00;8.95;;;10.20;99.90;;;;;;5074546;28;20036;-79
2021/11/23 10:52:05;;;;;;;10.65;6.57;;;10.30;99.90;;;;;;5071986;28;20040;-75
2021/11/23 10:54:37;;;;;;;10.98;6.90;;;10.30;99.90;;;;;;5074344;28;20020;-75
2021/11/23 10:57:12;;;;;;;7.28;5.60;;;10.50;99.90;;;;;;5038687;28;20040;-75
2021/11/23 10:59:39;;;;;;;10.10;6.32;;;10.60;99.90;;;;;;5075221;28;20048;-75
2021/11/23 11:02:06;;;;;;;8.55;5.95;;;10.70;99.90;;;;;;5074515;28;20032;-75
2021/11/23 11:04:34;;;;;;;5.95;4.47;;;10.80;99.90;;;;;;5068528;28;20369;-75
2021/11/23 11:07:02;;;;;;;7.63;4.97;;;10.90;99.90;;;;;;5071422;28;20048;-75
2021/11/23 11:09:30;;;;;;;10.65;4.57;;;10.80;99.90;;;;;;5069999;28;20419;-75
2021/11/23 11:11:56;;;;;;;6.82;4.57;;;10.90;99.90;;;;;;5062526;28;20376;-75
2021/11/23 11:14:24;;;;;;;7.55;4.22;;;11.00;99.90;;;;;;5056177;28;20037;-75
2021/11/23 11:16:50;;;;;;;7.55;5.00;;;11.00;99.90;;;;;;5050815;28;20079;-75
2021/11/23 11:19:18;;;;;;;6.57;4.03;;;11.10;99.90;;;;;;5070989;28;20392;-75
2021/11/23 11:22:05;;;;;;;5.07;3.90;;;11.20;99.90;;;;;;5062579;28;20381;-75
2021/11/23 11:24:50;;;;;;;5.97;4.25;;;11.10;99.90;;;;;;5070038;28;20044;-77
2021/11/23 11:27:41;;;;;;;9.10;4.47;;;11.10;99.90;;;;;;5061512;28;20047;-76
2021/11/23 11:30:30;;;;;;;5.72;4.22;;;11.00;99.90;;;;;;5065462;28;20035;-75
2021/11/23 11:33:06;;;;;;;6.32;4.32;;;10.90;99.90;;;;;;5051024;28;20024;-74
2021/11/23 11:35:42;;;;;;;8.30;6.38;;;10.90;99.90;;;;;;5057847;28;20643;-74
2021/11/23 11:38:29;;;;;;;11.15;7.50;;;10.90;99.90;;;;;;5061035;28;20396;-74
2021/11/23 11:40:57;;;;;;;8.02;5.38;;;11.00;99.90;;;;;;5041118;28;20068;-75
2021/11/23 11:43:45;;;;;;;6.80;5.15;;;11.10;99.90;;;;;;5066988;28;20051;-78
2021/11/23 11:46:31;;;;;;;9.90;4.38;;;11.20;99.90;;;;;;5063361;28;20375;-76
2021/11/23 11:48:58;;;;;;;5.38;3.80;;;11.10;99.90;;;;;;5049049;28;20033;-76
2021/11/23 11:51:30;;;;;;;6.10;4.22;;;11.10;99.90;;;;;;5063585;28;20052;-78
2021/11/23 11:54:15;;;;;;;5.07;3.63;;;11.10;99.90;;;;;;5047834;28;20398;-78
2021/11/23 11:56:44;;;;;;;9.40;4.53;;;11.00;99.90;;;;;;5064602;28;20047;-76
2021/11/23 11:59:16;;;;;;;7.00;4.22;;;11.00;99.90;;;;;;5071408;28;20036;-76
2021/11/23 12:01:52;;;;;;;7.70;4.30;;;11.00;99.90;;;;;;5054680;28;20045;-76
2021/11/23 12:04:21;;;;;;;11.20;7.25;;;11.00;99.90;;;;;;5073945;28;20028;-77
2021/11/23 12:06:54;;;;;;;12.25;6.72;;;11.00;99.90;;;;;;5036660;28;20554;-76
2021/11/23 12:09:31;;;;;;;;;;;11.00;99.90;;;;;;5074823;28;20033;-77
2021/11/23 12:12:19;;;;;;;8.48;4.85;;;10.90;99.90;;;;;;5069204;28;20398;-76
2021/11/23 12:14:59;;;;;;;6.63;4.22;;;10.90;99.90;;;;;;5072897;28;20050;-75
2021/11/23 12:17:51;;;;;;;11.23;5.15;;;10.80;99.90;;;;;;5055847;28;20036;-75
2021/11/23 12:20:55;;;;;;;6.32;4.18;;;10.80;99.90;;;;;;5071366;28;20037;-76
2021/11/23 12:23:57;;;;;;;7.93;4.75;;;10.80;99.90;;;;;;5081216;28;20032;-78
2021/11/23 12:26:35;;;;;;;9.10;4.97;;;10.80;99.90;;;;;;5075040;28;20068;-77
2021/11/23 12:29:03;;;;;;;10.50;5.47;;;10.80;99.90;;;;;;5073877;28;20032;-77
2021/11/23 12:31:36;;;;;;;8.15;6.13;;;10.70;99.90;;;;;;5075070;28;20036;-77
2021/11/23 12:34:06;;;;;;;12.38;6.40;;;10.80;99.90;;;;;;5058142;28;20040;-77
2021/11/23 12:36:39;;;;;;;10.15;5.63;;;10.70;99.90;;;;;;5061106;28;20043;-78
2021/11/23 12:39:12;;;;;;;9.52;4.88;;;10.70;99.90;;;;;;5075008;28;20032;-78
2021/11/23 12:41:39;;;;;;;9.23;4.82;;;10.70;99.90;;;;;;5060578;28;20391;-78
2021/11/23 12:44:24;;;;;;;10.90;5.63;;;10.80;99.90;;;;;;5077599;28;20367;-78
2021/11/23 12:46:53;;;;;;;8.90;4.18;;;10.80;99.90;;;;;;5070089;28;20043;-78
2021/11/23 12:49:19;;;;;;;7.22;5.10;;;10.90;99.90;;;;;;5061093;28;20036;-78
2021/11/23 12:52:01;;;;;;;7.97;4.30;;;10.90;99.90;;;;;;5058800;28;20489;-78
2021/11/23 12:54:32;;;;;;;10.48;5.28;;;11.00;99.90;;;;;;5060798;28;20035;-80
2021/11/23 12:57:12;;;;;;;10.15;4.47;;;11.00;99.90;;;;;;5066824;28;20043;-77
2021/11/23 12:59:43;;;;;;;9.45;5.97;;;11.10;99.90;;;;;;5056979;28;20290;-79